Time;durP1;ratioP1;P1;durP2;ratioP2;P2;SDS_P1;SDS_P2;PMS_P1;PMS_P2;Temp;Humidity;BMP_temperature;BMP_pressure;BME280_temperature;BME280_humidity;BME280_pressure;Samples;Min_cycle;Max_cycle;Signal;HPM_P1;HPM_P2
2022/01/16 00:04:06;;;;;;;21.43;12.93;;;-3.20;99.90;;;;;;4995087;28;20441;-76
2022/01/16 00:06:33;;;;;;;17.80;13.23;;;-3.20;99.90;;;;;;4993298;28;20441;-76
2022/01/16 00:08:59;;;;;;;20.63;12.73;;;-3.20;99.90;;;;;;4993255;28;20464;-76
2022/01/16 00:11:25;;;;;;;20.83;13.53;;;-3.20;99.90;;;;;;4997194;28;20533;-76
2022/01/16 00:13:51;;;;;;;18.90;12.97;;;-3.20;99.90;;;;;;4993298;28;20187;-76
2022/01/16 00:16:17;;;;;;;22.33;13.43;;;-3.20;99.90;;;;;;4993229;28;20421;-76
2022/01/16 00:18:52;;;;;;;24.60;13.53;;;-3.20;99.90;;;;;;4994297;28;20638;-76
2022/01/16 00:21:33;;;;;;;18.97;12.10;;;-3.20;99.90;;;;;;4992925;28;20442;-76
2022/01/16 00:23:59;;;;;;;19.73;11.70;;;-3.30;99.90;;;;;;4994808;28;20429;-76
2022/01/16 00:26:25;;;;;;;18.90;12.33;;;-3.20;99.90;;;;;;4993118;28;20422;-76
2022/01/16 00:28:52;;;;;;;15.43;11.43;;;-3.20;99.90;;;;;;4992947;28;20454;-76
2022/01/16 00:31:20;;;;;;;18.50;12.90;;;-3.20;99.90;;;;;;4992163;28;20927;-76
2022/01/16 00:33:45;;;;;;;21.90;14.70;;;-3.10;99.90;;;;;;4994443;28;20465;-76
2022/01/16 00:36:17;;;;;;;26.43;16.23;;;-3.00;99.90;;;;;;4992904;28;20426;-76
2022/01/16 00:38:44;;;;;;;24.03;14.83;;;-3.00;99.90;;;;;;4993267;28;20680;-76
2022/01/16 00:41:15;;;;;;;23.97;14.33;;;-3.00;99.90;;;;;;4993834;28;20438;-76
2022/01/16 00:43:41;;;;;;;23.87;14.70;;;-3.00;99.90;;;;;;4992820;28;20460;-76
2022/01/16 00:46:07;;;;;;;29.57;16.00;;;-3.00;99.90;;;;;;4992824;28;20425;-76
2022/01/16 00:48:33;;;;;;;24.70;15.07;;;-3.00;99.90;;;;;;4994100;28;20466;-76
2022/01/16 00:50:58;;;;;;;25.73;15.17;;;-3.10;99.90;;;;;;4993820;28;20956;-76
2022/01/16 00:53:24;;;;;;;23.70;14.57;;;-3.10;99.90;;;;;;4992792;28;20175;-76
2022/01/16 00:55:50;;;;;;;24.73;14.60;;;-3.00;99.90;;;;;;4992818;28;20207;-76
2022/01/16 00:58:16;;;;;;;16.83;10.83;;;-3.00;99.90;;;;;;4994116;28;20684;-76
2022/01/16 01:00:42;;;;;;;14.70;10.43;;;-3.20;99.90;;;;;;4992569;28;20203;-76
2022/01/16 01:03:07;;;;;;;15.60;10.60;;;-3.40;99.90;;;;;;4993973;28;20704;-76
2022/01/16 01:05:35;;;;;;;15.87;10.90;;;-3.40;99.90;;;;;;4992968;28;20477;-76
2022/01/16 01:08:02;;;;;;;15.87;11.47;;;-3.40;99.90;;;;;;4992888;28;20211;-76
2022/01/16 01:10:35;;;;;;;15.53;11.17;;;-3.50;99.90;;;;;;4992570;28;20467;-76
2022/01/16 01:15:51;;;;;;;18.70;12.67;;;-3.50;99.90;;;;;;4994826;28;20454;-75
2022/01/16 01:18:20;;;;;;;19.67;11.73;;;-3.50;99.90;;;;;;4993698;28;20908;-76
2022/01/16 01:20:48;;;;;;;17.73;11.37;;;-3.40;99.90;;;;;;4992364;28;20484;-76
2022/01/16 01:23:15;;;;;;;19.63;12.47;;;-3.40;99.90;;;;;;4992892;28;20797;-76
2022/01/16 01:25:42;;;;;;;21.90;13.10;;;-3.30;99.90;;;;;;4993801;28;20833;-76
2022/01/16 01:28:09;;;;;;;25.37;13.50;;;-3.30;99.90;;;;;;4992504;28;20458;-76
2022/01/16 01:30:35;;;;;;;36.93;14.30;;;-3.30;99.90;;;;;;4992195;28;21007;-76
2022/01/16 01:33:01;;;;;;;20.63;13.60;;;-3.40;99.90;;;;;;4992412;28;20801;-76
2022/01/16 01:35:28;;;;;;;19.83;13.00;;;-3.30;99.90;;;;;;4992548;28;20506;-76
2022/01/16 01:37:54;;;;;;;17.87;12.17;;;-3.40;99.90;;;;;;4992469;28;20194;-76
2022/01/16 01:40:26;;;;;;;18.67;12.40;;;-3.40;99.90;;;;;;4992120;28;20990;-76
2022/01/16 01:51:13;;;;;;;17.77;10.83;;;-3.60;99.90;;;;;;4997149;28;21008;-76
2022/01/16 01:53:40;;;;;;;17.13;11.40;;;-3.60;99.90;;;;;;4995820;28;20425;-76
2022/01/16 01:56:08;;;;;;;15.60;10.97;;;-3.60;99.90;;;;;;4998370;28;20404;-76
2022/01/16 01:58:34;;;;;;;18.97;11.00;;;-3.50;99.90;;;;;;4995676;28;20514;-76
2022/01/16 02:01:00;;;;;;;20.00;11.67;;;-3.60;99.90;;;;;;4995307;28;20441;-76
2022/01/16 02:06:00;;;;;;;17.70;11.83;;;-3.70;99.90;;;;;;4996773;28;20445;-76
2022/01/16 02:08:26;;;;;;;22.37;12.60;;;-3.70;99.90;;;;;;4995408;28;20468;-76
2022/01/16 02:10:52;;;;;;;21.07;12.70;;;-3.70;99.90;;;;;;4995230;28;20197;-76
2022/01/16 02:13:26;;;;;;;13.60;9.90;;;-3.80;99.90;;;;;;4995731;28;20635;-76
2022/01/16 02:34:38;;;;;;;17.03;10.73;;;-4.40;99.90;;;;;;4996862;28;20401;-76
2022/01/16 02:37:06;;;;;;;16.30;10.83;;;-4.40;99.90;;;;;;4995003;28;20941;-76
2022/01/16 02:39:36;;;;;;;14.17;9.90;;;-4.50;99.90;;;;;;4994847;28;20429;-76
2022/01/16 02:42:04;;;;;;;14.53;9.80;;;-4.50;99.90;;;;;;4994514;28;20505;-76
2022/01/16 02:46:56;;;;;;;17.10;10.70;;;-4.60;99.90;;;;;;4996177;28;20824;-76
2022/01/16 02:49:26;;;;;;;14.37;10.03;;;-4.50;99.90;;;;;;4994593;28;20205;-76
2022/01/16 02:52:12;;;;;;;15.83;10.73;;;-4.50;99.90;;;;;;4995692;28;20487;-76
2022/01/16 02:54:40;;;;;;;13.20;9.50;;;-4.50;99.90;;;;;;4995433;28;20478;-76
2022/01/16 02:57:10;;;;;;;13.90;9.80;;;-4.60;99.90;;;;;;4994683;28;20421;-78
2022/01/16 02:59:36;;;;;;;15.60;9.93;;;-4.60;99.90;;;;;;4996271;28;20505;-77
2022/01/16 03:02:05;;;;;;;17.43;11.30;;;-4.60;99.90;;;;;;4996173;28;20455;-77
2022/01/16 03:04:31;;;;;;;15.53;11.40;;;-4.60;99.90;;;;;;4995732;28;20424;-77
2022/01/16 03:07:00;;;;;;;16.87;11.20;;;-4.60;99.90;;;;;;4994771;28;20445;-77
2022/01/16 03:09:31;;;;;;;14.57;10.30;;;-4.50;99.90;;;;;;4995776;28;20465;-77
2022/01/16 03:11:57;;;;;;;15.47;11.13;;;-4.50;99.90;;;;;;4994125;28;20534;-77
2022/01/16 03:14:22;;;;;;;14.13;9.73;;;-4.50;99.90;;;;;;4994318;28;20506;-77
2022/01/16 03:16:52;;;;;;;15.20;9.37;;;-4.50;99.90;;;;;;4994301;28;20186;-77
2022/01/16 03:22:05;;;;;;;13.80;9.37;;;-4.80;99.90;;;;;;4995663;28;20436;-78
2022/01/16 03:24:36;;;;;;;14.73;8.90;;;-4.90;99.90;;;;;;4995685;28;20935;-77
2022/01/16 03:27:05;;;;;;;14.00;8.30;;;-5.00;99.90;;;;;;4995412;28;20404;-77
2022/01/16 03:29:31;;;;;;;13.40;7.93;;;-5.10;99.90;;;;;;4995544;28;20455;-77
2022/01/16 03:31:59;;;;;;;12.93;8.83;;;-5.10;99.90;;;;;;4993634;28;20444;-77
2022/01/16 03:34:25;;;;;;;15.90;10.37;;;-5.10;99.90;;;;;;4995478;28;20632;-77
2022/01/16 03:36:50;;;;;;;19.60;11.23;;;-5.10;99.90;;;;;;4994036;28;20421;-77
2022/01/16 03:39:16;;;;;;;16.30;10.60;;;-5.20;99.90;;;;;;4996366;28;20188;-77
2022/01/16 03:41:42;;;;;;;15.37;9.20;;;-5.20;99.90;;;;;;4993619;28;20734;-77
2022/01/16 03:44:08;;;;;;;15.00;9.77;;;-5.10;99.90;;;;;;4993641;28;20269;-78
2022/01/16 03:46:37;;;;;;;12.00;8.47;;;-5.10;99.90;;;;;;4995217;28;20190;-77
2022/01/16 03:49:06;;;;;;;17.20;10.40;;;-5.00;99.90;;;;;;4995669;28;20456;-77
2022/01/16 03:51:32;;;;;;;14.57;9.43;;;-5.00;99.90;;;;;;4993710;28;20445;-77
2022/01/16 03:53:58;;;;;;;16.43;10.20;;;-5.10;99.90;;;;;;4993553;28;20431;-77
2022/01/16 03:56:24;;;;;;;15.90;10.20;;;-5.00;99.90;;;;;;4994964;28;20430;-77
2022/01/16 03:58:50;;;;;;;16.37;9.67;;;-5.00;99.90;;;;;;4993465;28;20196;-77
2022/01/16 04:01:16;;;;;;;16.73;10.23;;;-5.10;99.90;;;;;;4994468;28;20209;-77
2022/01/16 04:03:42;;;;;;;15.30;9.63;;;-5.10;99.90;;;;;;4995100;28;20181;-77
2022/01/16 04:06:07;;;;;;;17.13;10.47;;;-5.00;99.90;;;;;;4992527;28;20201;-77
2022/01/16 04:08:33;;;;;;;16.83;10.47;;;-5.10;99.90;;;;;;4993388;28;20208;-77
2022/01/16 04:11:00;;;;;;;13.90;9.73;;;-5.00;99.90;;;;;;4993321;28;20568;-77
2022/01/16 04:13:25;;;;;;;16.53;10.80;;;-5.00;99.90;;;;;;4994727;28;20178;-77
2022/01/16 04:15:51;;;;;;;15.37;10.17;;;-4.90;99.90;;;;;;4994886;28;20421;-77
2022/01/16 04:18:17;;;;;;;16.43;10.47;;;-4.90;99.90;;;;;;4993246;28;20180;-77
2022/01/16 04:20:43;;;;;;;18.00;9.97;;;-5.00;99.90;;;;;;4993040;28;20201;-78
2022/01/16 04:23:12;;;;;;;16.63;9.43;;;-5.10;99.90;;;;;;4993206;28;20235;-77
2022/01/16 04:25:38;;;;;;;14.27;9.47;;;-5.10;99.90;;;;;;4994430;28;20632;-77
2022/01/16 04:28:04;;;;;;;17.07;10.60;;;-5.10;99.90;;;;;;4992951;28;20512;-77
2022/01/16 04:30:30;;;;;;;12.37;9.03;;;-5.20;99.90;;;;;;4992740;28;20531;-77
2022/01/16 04:32:56;;;;;;;11.10;8.63;;;-5.20;99.90;;;;;;4993230;28;20415;-78
2022/01/16 04:35:22;;;;;;;11.87;8.53;;;-5.30;99.90;;;;;;4994365;28;20801;-77
2022/01/16 04:37:48;;;;;;;11.70;8.80;;;-5.40;99.90;;;;;;4994196;28;20185;-77
2022/01/16 04:40:15;;;;;;;16.00;10.53;;;-5.30;99.90;;;;;;4994044;28;20469;-77
2022/01/16 04:45:25;;;;;;;15.87;10.20;;;-5.20;99.90;;;;;;4994631;28;20399;-77
2022/01/16 04:47:52;;;;;;;16.30;10.53;;;-5.20;99.90;;;;;;4994393;28;20460;-77
2022/01/16 04:50:21;;;;;;;13.83;9.67;;;-5.20;99.90;;;;;;4993054;28;20237;-77
2022/01/16 04:52:48;;;;;;;11.80;8.73;;;-5.30;99.90;;;;;;4992967;28;20425;-77
2022/01/16 04:55:14;;;;;;;12.77;9.13;;;-5.30;99.90;;;;;;4992757;28;20515;-77
2022/01/16 04:57:41;;;;;;;15.27;8.87;;;-5.30;99.90;;;;;;4994046;28;20436;-77
2022/01/16 05:00:14;;;;;;;10.63;7.67;;;-5.40;99.90;;;;;;4992612;28;20415;-77
2022/01/16 05:02:41;;;;;;;13.83;8.93;;;-5.40;99.90;;;;;;4992788;28;20506;-77
2022/01/16 05:05:07;;;;;;;12.77;8.80;;;-5.50;99.90;;;;;;4992866;28;20997;-77
2022/01/16 05:07:32;;;;;;;13.33;9.00;;;-5.40;99.90;;;;;;4992832;28;20766;-77
2022/01/16 05:09:58;;;;;;;14.07;8.70;;;-5.40;99.90;;;;;;4994088;28;20417;-77
2022/01/16 05:12:33;;;;;;;12.07;8.33;;;-5.40;99.90;;;;;;4993827;28;20181;-77
2022/01/16 05:17:43;;;;;;;11.33;7.80;;;-5.40;99.90;;;;;;4995846;28;20751;-77
2022/01/16 05:20:09;;;;;;;14.13;8.53;;;-5.40;99.90;;;;;;4997748;28;20416;-77
2022/01/16 05:22:36;;;;;;;11.80;7.87;;;-5.30;99.90;;;;;;4997399;28;20194;-77
2022/01/16 05:25:07;;;;;;;13.33;8.47;;;-5.30;99.90;;;;;;4997611;28;20417;-77
2022/01/16 05:27:34;;;;;;;13.13;8.20;;;-5.30;99.90;;;;;;4996294;28;20417;-77
2022/01/16 05:30:00;;;;;;;13.03;7.87;;;-5.30;99.90;;;;;;4996122;28;20884;-77
2022/01/16 05:32:25;;;;;;;11.40;7.57;;;-5.30;99.90;;;;;;4997213;28;20977;-77
2022/01/16 05:34:51;;;;;;;12.23;8.27;;;-5.40;99.90;;;;;;4997782;28;20187;-77
2022/01/16 05:37:17;;;;;;;13.60;8.23;;;-5.40;99.90;;;;;;4997541;28;20190;-77
2022/01/16 05:39:44;;;;;;;12.80;8.63;;;-5.30;99.90;;;;;;5012407;28;20238;-77
2022/01/16 05:42:12;;;;;;;13.67;8.87;;;-5.30;99.90;;;;;;4995795;28;20205;-77
2022/01/16 05:44:39;;;;;;;18.93;11.03;;;-5.30;99.90;;;;;;4995952;28;20423;-77
2022/01/16 05:47:05;;;;;;;20.60;11.43;;;-5.30;99.90;;;;;;4995857;28;20426;-77
2022/01/16 05:49:31;;;;;;;15.97;10.80;;;-5.30;99.90;;;;;;4995769;28;20496;-77
2022/01/16 05:51:56;;;;;;;17.43;11.27;;;-5.30;99.90;;;;;;4995632;28;20464;-77
2022/01/16 05:54:22;;;;;;;18.60;10.63;;;-5.30;99.90;;;;;;4996958;28;20258;-77
2022/01/16 05:56:48;;;;;;;17.03;10.73;;;-5.40;99.90;;;;;;4996856;28;20529;-77
2022/01/16 05:59:13;;;;;;;13.10;8.37;;;-5.30;99.90;;;;;;4995563;28;20271;-77
2022/01/16 06:01:39;;;;;;;13.83;9.30;;;-5.40;99.90;;;;;;4995331;28;20210;-77
2022/01/16 06:04:05;;;;;;;14.00;8.13;;;-5.40;99.90;;;;;;4997317;28;20527;-77
2022/01/16 06:06:30;;;;;;;14.87;8.00;;;-5.40;99.90;;;;;;4995342;28;20206;-77
2022/01/16 06:08:56;;;;;;;14.13;9.80;;;-5.30;99.90;;;;;;4996818;28;20202;-77
2022/01/16 06:11:22;;;;;;;22.53;13.07;;;-5.30;99.90;;;;;;4996315;28;20202;-77
2022/01/16 06:13:47;;;;;;;13.10;8.03;;;-5.40;99.90;;;;;;4995690;28;20229;-77
2022/01/16 06:16:13;;;;;;;10.97;7.57;;;-5.40;99.90;;;;;;4996539;28;20174;-77
2022/01/16 06:18:39;;;;;;;12.50;8.27;;;-5.40;99.90;;;;;;4995230;28;20268;-77
2022/01/16 06:21:04;;;;;;;10.93;7.57;;;-5.40;99.90;;;;;;4996137;28;20198;-77
2022/01/16 06:23:30;;;;;;;10.90;8.23;;;-5.30;99.90;;;;;;4996373;28;20182;-77
2022/01/16 06:25:56;;;;;;;15.00;8.40;;;-5.30;99.90;;;;;;4996304;28;20189;-77
2022/01/16 06:28:23;;;;;;;8.27;6.87;;;-5.30;99.90;;;;;;4994757;28;20217;-77
2022/01/16 06:30:49;;;;;;;10.80;7.13;;;-5.30;99.90;;;;;;4995756;28;20723;-77
2022/01/16 06:33:15;;;;;;;11.60;7.97;;;-5.30;99.90;;;;;;4996510;28;20410;-77
2022/01/16 06:35:41;;;;;;;15.10;7.77;;;-5.30;99.90;;;;;;5011290;28;20418;-77
2022/01/16 06:38:07;;;;;;;19.43;10.40;;;-5.40;99.90;;;;;;4996676;28;20244;-77
2022/01/16 06:40:33;;;;;;;19.47;11.33;;;-5.30;99.90;;;;;;5010920;28;20668;-77
2022/01/16 06:42:58;;;;;;;21.67;12.17;;;-5.30;99.90;;;;;;4994886;28;20190;-77
2022/01/16 06:45:24;;;;;;;16.03;9.80;;;-5.20;99.90;;;;;;4994765;28;20530;-77
2022/01/16 06:47:51;;;;;;;14.63;9.67;;;-5.20;99.90;;;;;;4995919;28;20213;-77
2022/01/16 06:50:18;;;;;;;12.70;8.33;;;-5.10;99.90;;;;;;4994447;28;20182;-77
2022/01/16 06:52:43;;;;;;;13.07;8.80;;;-5.00;99.90;;;;;;4994536;28;20433;-77
2022/01/16 06:55:10;;;;;;;11.00;7.33;;;-5.00;99.90;;;;;;4994749;28;20447;-77
2022/01/16 06:57:35;;;;;;;12.33;8.10;;;-4.80;99.90;;;;;;4995707;28;20202;-77
2022/01/16 07:00:04;;;;;;;17.70;9.30;;;-4.50;99.90;;;;;;4994428;28;20448;-77
2022/01/16 07:02:30;;;;;;;16.93;8.90;;;-4.40;99.90;;;;;;4995647;28;20186;-77
2022/01/16 07:04:55;;;;;;;18.07;9.10;;;-4.20;99.90;;;;;;4994378;28;20488;-77
2022/01/16 07:07:21;;;;;;;13.50;7.50;;;-4.10;99.90;;;;;;4994246;28;20425;-77
2022/01/16 07:09:47;;;;;;;14.70;7.40;;;-3.90;99.90;;;;;;4995492;28;20214;-77
2022/01/16 07:12:12;;;;;;;17.17;7.77;;;-3.60;99.90;;;;;;4995446;28;20199;-77
2022/01/16 07:14:39;;;;;;;11.37;6.30;;;-3.60;99.90;;;;;;4994304;28;20186;-78
2022/01/16 07:17:04;;;;;;;11.83;7.03;;;-3.40;99.90;;;;;;4994221;28;20184;-78
2022/01/16 07:19:30;;;;;;;14.33;7.47;;;-3.20;99.90;;;;;;4995677;28;20425;-77
2022/01/16 07:21:56;;;;;;;13.13;6.57;;;-3.00;99.90;;;;;;4995295;28;20199;-77
2022/01/16 07:24:22;;;;;;;11.63;6.37;;;-2.90;99.90;;;;;;4994253;28;20183;-78
2022/01/16 07:26:48;;;;;;;16.63;7.53;;;-2.70;99.90;;;;;;4994492;28;20556;-77
2022/01/16 07:29:13;;;;;;;11.13;4.63;;;-2.50;99.90;;;;;;4995271;28;20955;-77
2022/01/16 07:31:39;;;;;;;9.87;5.63;;;-2.30;99.90;;;;;;4993671;28;20461;-77
2022/01/16 07:34:06;;;;;;;10.77;5.23;;;-1.90;99.90;;;;;;4993934;28;20188;-77
2022/01/16 07:36:32;;;;;;;13.20;5.10;;;-1.60;99.90;;;;;;4995077;28;20315;-77
2022/01/16 07:38:58;;;;;;;4.57;3.20;;;-1.30;99.90;;;;;;4995432;28;20517;-77
2022/01/16 07:41:24;;;;;;;9.43;4.33;;;-0.80;99.90;;;;;;4993724;28;20207;-77
2022/01/16 07:43:49;;;;;;;7.27;3.80;;;-0.40;99.90;;;;;;4995098;28;20189;-77
2022/01/16 07:46:17;;;;;;;9.67;3.93;;;-0.30;99.90;;;;;;4994311;28;20187;-77
2022/01/16 07:48:43;;;;;;;7.50;4.53;;;-0.20;99.90;;;;;;4993844;28;20204;-77
2022/01/16 07:51:09;;;;;;;5.23;3.53;;;-0.10;99.90;;;;;;4994808;28;20430;-77
2022/01/16 07:53:36;;;;;;;4.90;3.20;;;0.10;99.90;;;;;;4995377;28;20262;-78
2022/01/16 07:56:03;;;;;;;5.17;3.30;;;0.10;99.90;;;;;;4994963;28;20740;-78
2022/01/16 07:58:29;;;;;;;8.07;4.73;;;0.20;99.90;;;;;;5010311;28;20426;-77
2022/01/16 08:00:56;;;;;;;8.17;4.20;;;0.30;99.90;;;;;;4995272;28;20438;-78
2022/01/16 08:03:22;;;;;;;7.33;4.07;;;0.40;99.90;;;;;;5010721;28;20427;-78
2022/01/16 08:05:48;;;;;;;5.63;3.53;;;0.30;99.90;;;;;;4995714;28;20853;-78
2022/01/16 08:08:14;;;;;;;9.83;4.73;;;0.30;99.90;;;;;;4994583;28;20976;-78
2022/01/16 08:10:41;;;;;;;9.20;4.40;;;0.20;99.90;;;;;;4994682;28;20230;-78
2022/01/16 08:13:06;;;;;;;7.40;4.60;;;0.10;99.90;;;;;;4995701;28;20411;-78
2022/01/16 08:15:32;;;;;;;7.40;4.17;;;0.10;99.90;;;;;;4993900;28;20207;-78
2022/01/16 08:17:58;;;;;;;8.53;4.87;;;0.10;99.90;;;;;;4995349;28;20187;-78
2022/01/16 08:20:24;;;;;;;8.07;4.70;;;0.50;99.90;;;;;;4995118;28;20620;-77
2022/01/16 08:22:50;;;;;;;6.90;4.17;;;0.60;99.90;;;;;;5010682;28;20585;-78
2022/01/16 08:25:16;;;;;;;6.93;4.27;;;1.40;99.90;;;;;;5010753;28;20433;-78
2022/01/16 08:27:41;;;;;;;6.53;4.27;;;2.40;99.90;;;;;;4995086;28;20599;-79
2022/01/16 08:30:08;;;;;;;6.40;3.70;;;3.30;99.90;;;;;;4997018;28;20266;-79
2022/01/16 08:32:35;;;;;;;7.73;4.20;;;4.00;99.90;;;;;;4995540;28;20211;-78
2022/01/16 08:35:00;;;;;;;7.10;4.47;;;4.50;99.90;;;;;;4998926;28;20425;-77
2022/01/16 08:37:27;;;;;;;7.27;4.77;;;5.00;99.90;;;;;;4997337;28;20494;-79
2022/01/16 08:39:52;;;;;;;7.70;4.57;;;5.20;99.90;;;;;;4997612;28;20234;-79
2022/01/16 08:42:18;;;;;;;6.83;4.87;;;5.40;99.90;;;;;;4998703;28;20196;-79
2022/01/16 08:44:44;;;;;;;5.87;3.93;;;5.50;99.90;;;;;;4999078;28;20267;-79
2022/01/16 08:47:10;;;;;;;6.50;4.37;;;5.70;99.90;;;;;;5000960;28;20176;-79
2022/01/16 08:49:36;;;;;;;6.43;4.50;;;6.00;99.90;;;;;;5000375;28;20209;-79
2022/01/16 08:52:03;;;;;;;5.73;4.27;;;6.40;99.90;;;;;;4999439;28;20272;-80
2022/01/16 08:54:29;;;;;;;5.50;4.10;;;6.50;99.90;;;;;;5001666;28;20171;-79
2022/01/16 08:56:54;;;;;;;7.23;4.07;;;6.70;99.70;;;;;;5001426;28;20231;-79
2022/01/16 08:59:20;;;;;;;9.23;6.13;;;6.80;99.90;;;;;;4999690;28;20179;-79
2022/01/16 09:01:46;;;;;;;6.37;5.10;;;6.90;99.90;;;;;;5000083;28;20266;-79
2022/01/16 09:04:12;;;;;;;6.10;4.40;;;6.90;99.90;;;;;;5000615;28;20167;-79
2022/01/16 09:06:38;;;;;;;6.33;3.87;;;6.90;99.60;;;;;;5000610;28;20653;-79
2022/01/16 09:09:03;;;;;;;10.50;4.33;;;6.90;99.20;;;;;;5000024;28;20226;-79
2022/01/16 09:11:29;;;;;;;6.60;4.37;;;6.90;99.70;;;;;;5000504;28;20207;-79
2022/01/16 09:13:55;;;;;;;5.20;4.00;;;7.20;99.90;;;;;;5001783;28;20195;-80
2022/01/16 09:16:21;;;;;;;6.00;4.50;;;7.40;99.90;;;;;;5017584;28;20176;-80
2022/01/16 09:18:48;;;;;;;7.10;4.90;;;7.10;97.80;;;;;;5002348;28;20183;-80
2022/01/16 09:21:16;;;;;;;6.27;4.80;;;6.80;96.80;;;;;;5000427;28;20249;-79
2022/01/16 09:23:46;;;;;;;7.73;5.23;;;6.70;97.00;;;;;;4997376;28;20179;-79
2022/01/16 09:26:13;;;;;;;7.33;5.77;;;6.70;97.80;;;;;;5000333;28;20641;-79
2022/01/16 09:28:40;;;;;;;7.23;5.10;;;6.70;98.20;;;;;;4999666;28;20292;-80
2022/01/16 09:31:06;;;;;;;8.27;6.17;;;6.50;98.50;;;;;;5000844;28;20191;-80
2022/01/16 09:33:32;;;;;;;7.97;5.93;;;5.90;99.40;;;;;;5002155;28;20182;-80
2022/01/16 09:35:58;;;;;;;8.67;6.43;;;5.90;99.80;;;;;;5001466;28;20172;-80
2022/01/16 09:38:24;;;;;;;7.43;5.27;;;6.00;99.30;;;;;;5001080;28;20183;-77
2022/01/16 09:40:51;;;;;;;8.53;6.10;;;5.80;99.30;;;;;;4998402;28;20212;-78
2022/01/16 09:43:17;;;;;;;5.93;4.90;;;5.80;99.50;;;;;;4997755;28;20180;-80
2022/01/16 09:45:43;;;;;;;9.50;6.90;;;5.60;99.20;;;;;;4997854;28;20234;-80
2022/01/16 09:48:09;;;;;;;6.70;5.20;;;5.60;99.90;;;;;;4999905;28;20199;-80
2022/01/16 09:50:35;;;;;;;7.27;4.17;;;5.50;99.50;;;;;;4999421;28;20199;-80
2022/01/16 09:53:02;;;;;;;11.33;7.13;;;5.30;99.90;;;;;;4999697;28;20178;-80
2022/01/16 09:55:27;;;;;;;9.37;6.40;;;5.30;99.90;;;;;;5000420;28;20266;-80
2022/01/16 09:57:56;;;;;;;15.80;9.27;;;6.00;99.90;;;;;;5000249;28;20287;-80
2022/01/16 10:00:24;;;;;;;12.47;7.30;;;6.40;99.90;;;;;;4998127;28;20187;-80
2022/01/16 10:02:50;;;;;;;8.40;6.60;;;6.40;99.90;;;;;;4999010;28;20557;-80
2022/01/16 10:05:23;;;;;;;13.60;8.47;;;6.40;99.90;;;;;;4997343;28;20602;-81
2022/01/16 10:07:49;;;;;;;13.10;7.10;;;6.40;99.90;;;;;;4998112;28;20183;-81
2022/01/16 10:10:16;;;;;;;9.70;6.23;;;6.10;99.90;;;;;;5011928;28;20183;-78
2022/01/16 10:12:49;;;;;;;8.57;6.20;;;6.10;99.90;;;;;;5010621;28;20182;-78
2022/01/16 10:15:24;;;;;;;10.67;6.60;;;6.20;99.90;;;;;;4998876;28;20266;-81
2022/01/16 10:17:54;;;;;;;10.53;7.13;;;6.10;99.90;;;;;;5001108;28;20164;-81
2022/01/16 10:20:21;;;;;;;10.80;6.67;;;6.20;99.90;;;;;;5001358;28;20197;-80
2022/01/16 10:22:53;;;;;;;9.07;6.13;;;6.20;99.90;;;;;;4999892;28;20176;-81
2022/01/16 10:25:45;;;;;;;9.53;6.60;;;6.10;99.90;;;;;;4999583;28;20168;-81
2022/01/16 10:28:22;;;;;;;11.23;7.10;;;6.20;99.90;;;;;;5000445;28;20190;-80
2022/01/16 10:30:53;;;;;;;11.60;6.73;;;6.50;99.90;;;;;;4999222;28;20199;-80
2022/01/16 10:33:25;;;;;;;11.77;7.63;;;6.40;99.90;;;;;;5000995;28;20664;-78
2022/01/16 10:35:54;;;;;;;7.50;5.57;;;6.60;99.90;;;;;;4999141;28;20172;-79
2022/01/16 10:38:25;;;;;;;9.70;6.90;;;6.70;99.90;;;;;;4999739;28;20211;-79
2022/01/16 10:40:53;;;;;;;10.77;7.40;;;7.00;99.90;;;;;;5002188;28;20195;-78
2022/01/16 10:43:21;;;;;;;12.17;7.13;;;7.00;99.90;;;;;;5001390;28;20233;-78
2022/01/16 10:45:51;;;;;;;20.87;11.60;;;7.40;99.90;;;;;;5001718;28;20176;-81
2022/01/16 10:48:23;;;;;;;7.07;5.23;;;7.60;99.90;;;;;;5001367;28;20207;-79
2022/01/16 10:50:51;;;;;;;8.97;6.43;;;7.30;99.90;;;;;;4999767;28;20192;-78
2022/01/16 10:53:29;;;;;;;9.47;6.40;;;7.50;99.50;;;;;;5000044;28;20646;-81
2022/01/16 10:56:02;;;;;;;6.53;5.13;;;7.50;99.90;;;;;;4999995;28;20168;-79
2022/01/16 10:58:39;;;;;;;28.07;14.90;;;7.60;98.80;;;;;;5001545;28;20199;-79
2022/01/16 11:01:13;;;;;;;8.43;6.50;;;7.90;99.20;;;;;;4999656;28;20199;-79
2022/01/16 11:03:42;;;;;;;11.27;7.27;;;8.10;97.60;;;;;;4998600;28;20218;-79
2022/01/16 11:06:08;;;;;;;11.17;7.27;;;7.80;97.20;;;;;;5000864;28;20188;-78
2022/01/16 11:08:34;;;;;;;7.00;4.83;;;7.40;97.70;;;;;;5001436;28;20199;-79
2022/01/16 11:11:00;;;;;;;10.83;7.00;;;7.30;97.70;;;;;;4998959;28;20199;-79
2022/01/16 11:13:30;;;;;;;10.97;7.67;;;7.50;98.40;;;;;;4998940;28;20183;-79
2022/01/16 11:15:58;;;;;;;10.43;7.43;;;7.80;99.60;;;;;;4999810;28;20199;-79
2022/01/16 11:18:25;;;;;;;9.27;7.17;;;7.40;98.30;;;;;;4997484;28;20187;-79
2022/01/16 11:23:33;;;;;;;7.10;5.67;;;7.80;98.00;;;;;;4999071;28;20160;-79
2022/01/16 11:26:00;;;;;;;8.20;6.00;;;7.70;99.50;;;;;;4999214;28;20152;-79
2022/01/16 11:28:26;;;;;;;8.00;5.90;;;7.70;99.70;;;;;;4997477;28;20214;-79
2022/01/16 11:30:55;;;;;;;6.87;5.67;;;8.00;99.90;;;;;;4999944;28;20203;-78
2022/01/16 11:33:23;;;;;;;9.53;6.17;;;7.90;99.90;;;;;;5008557;28;20168;-78
2022/01/16 11:35:53;;;;;;;7.57;5.67;;;7.90;99.90;;;;;;5004904;28;20318;-81
2022/01/16 11:38:20;;;;;;;10.67;7.03;;;7.90;99.90;;;;;;4997664;28;20183;-79
2022/01/16 11:40:50;;;;;;;8.53;6.53;;;8.10;99.90;;;;;;4997950;28;20191;-79
2022/01/16 11:43:19;;;;;;;6.97;5.97;;;7.90;99.90;;;;;;4997974;28;20245;-78
2022/01/16 11:45:54;;;;;;;9.47;6.40;;;7.60;99.90;;;;;;4996027;28;20183;-81
2022/01/16 11:48:42;;;;;;;9.73;6.97;;;7.90;99.90;;;;;;4995888;28;20282;-79
2022/01/16 11:51:36;;;;;;;9.17;6.73;;;8.30;99.90;;;;;;4996541;28;20311;-79
2022/01/16 11:54:04;;;;;;;10.93;6.87;;;8.40;99.60;;;;;;4996318;28;20220;-79
2022/01/16 11:56:39;;;;;;;9.90;6.93;;;8.50;99.30;;;;;;4996050;28;20207;-78
2022/01/16 11:59:22;;;;;;;8.83;6.73;;;8.50;98.90;;;;;;4997239;28;20641;-79
2022/01/16 12:01:48;;;;;;;17.47;9.30;;;8.60;98.70;;;;;;4994084;28;20568;-78
2022/01/16 12:04:31;;;;;;;12.47;8.53;;;8.70;97.60;;;;;;4994510;28;20653;-79
2022/01/16 12:07:05;;;;;;;11.87;8.43;;;8.80;97.50;;;;;;4994937;28;20290;-78
2022/01/16 12:12:16;;;;;;;11.73;7.57;;;9.10;95.70;;;;;;4996121;28;20195;-78
2022/01/16 12:14:55;;;;;;;10.77;7.93;;;8.90;96.30;;;;;;4996302;28;20172;-78
2022/01/16 12:17:31;;;;;;;8.60;6.70;;;8.90;96.00;;;;;;4995342;28;20250;-78
2022/01/16 12:19:58;;;;;;;8.33;6.20;;;8.90;95.90;;;;;;4996077;28;20171;-79
2022/01/16 12:22:42;;;;;;;8.10;6.40;;;8.60;96.20;;;;;;4996018;28;20196;-79
2022/01/16 12:25:15;;;;;;;8.60;5.53;;;8.50;95.90;;;;;;4995754;28;20179;-79
2022/01/16 12:27:50;;;;;;;8.90;6.40;;;8.40;96.10;;;;;;4996145;28;20175;-80
2022/01/16 12:30:21;;;;;;;8.60;5.63;;;8.20;97.10;;;;;;4994787;28;20213;-78
2022/01/16 12:33:00;;;;;;;6.90;4.87;;;8.40;96.50;;;;;;4995953;28;20550;-78
2022/01/16 12:35:41;;;;;;;7.90;5.23;;;7.80;96.40;;;;;;4999703;28;20156;-79
2022/01/16 12:38:18;;;;;;;7.87;6.27;;;7.50;97.80;;;;;;4999448;28;20239;-79
2022/01/16 12:41:06;;;;;;;8.73;6.17;;;7.30;98.30;;;;;;4999234;28;20267;-79
2022/01/16 12:43:40;;;;;;;8.93;5.37;;;7.30;97.70;;;;;;5014343;28;20657;-79
2022/01/16 12:46:08;;;;;;;8.43;5.70;;;7.00;98.40;;;;;;5002278;28;20198;-79
2022/01/16 12:48:39;;;;;;;7.57;5.93;;;7.00;99.30;;;;;;5000387;28;20203;-79
2022/01/16 12:51:06;;;;;;;7.97;5.80;;;6.90;98.90;;;;;;5002271;28;20226;-79
2022/01/16 12:53:41;;;;;;;8.00;6.03;;;6.80;99.20;;;;;;5005423;28;20250;-79
2022/01/16 12:56:32;;;;;;;9.07;6.23;;;6.70;99.20;;;;;;5000982;28;20188;-78
2022/01/16 12:59:05;;;;;;;8.30;6.30;;;6.60;99.60;;;;;;4999655;28;20200;-79
2022/01/16 13:01:32;;;;;;;12.60;8.93;;;6.50;99.40;;;;;;4996693;28;20687;-79
2022/01/16 13:03:58;;;;;;;14.20;10.20;;;6.40;99.70;;;;;;4998073;28;20182;-80
2022/01/16 13:06:34;;;;;;;15.37;8.20;;;6.40;99.90;;;;;;4998550;28;20204;-79
2022/01/16 13:09:06;;;;;;;22.80;13.60;;;6.40;99.90;;;;;;4999751;28;20654;-79
2022/01/16 13:11:33;;;;;;;42.13;20.57;;;6.50;99.90;;;;;;4999867;28;20196;-79
2022/01/16 13:13:59;;;;;;;52.47;26.47;;;6.50;99.90;;;;;;4999525;28;20179;-79
2022/01/16 13:16:40;;;;;;;23.63;15.53;;;6.50;99.90;;;;;;5001200;28;20184;-79
2022/01/16 13:19:13;;;;;;;37.00;20.27;;;6.20;99.90;;;;;;5000113;28;20175;-78
2022/01/16 13:22:13;;;;;;;69.53;31.80;;;6.20;99.90;;;;;;4999320;28;20259;-79
2022/01/16 13:24:47;;;;;;;43.03;21.37;;;6.30;99.90;;;;;;4999112;28;20191;-78
2022/01/16 13:27:17;;;;;;;31.10;19.90;;;6.30;99.90;;;;;;4998505;28;20691;-79
2022/01/16 13:29:46;;;;;;;34.07;20.37;;;6.00;99.60;;;;;;4998340;28;20221;-79
2022/01/16 13:32:20;;;;;;;26.30;18.23;;;5.50;99.90;;;;;;4997025;28;20206;-79
2022/01/16 13:34:54;;;;;;;21.73;14.03;;;5.20;99.90;;;;;;4999950;28;20263;-79
2022/01/16 13:37:34;;;;;;;16.93;11.43;;;5.20;99.90;;;;;;4996968;28;20686;-79